Time;durP1;ratioP1;P1;durP2;ratioP2;P2;SDS_P1;SDS_P2;PMS_P1;PMS_P2;Temp;Humidity;BMP_temperature;BMP_pressure;BME280_temperature;BME280_humidity;BME280_pressure;Samples;Min_cycle;Max_cycle;Signal;HPM_P1;HPM_P2
2023/10/16 00:01:04;;;;;;;8.83;1.67;;;6.80;83.20;;;;;;5088640;28;20131;-87
2023/10/16 00:03:31;;;;;;;6.40;1.50;;;6.80;83.30;;;;;;5092636;28;20046;-88
2023/10/16 00:05:57;;;;;;;7.43;1.40;;;6.80;83.30;;;;;;5092550;28;20043;-88
2023/10/16 00:08:23;;;;;;;6.47;1.30;;;6.70;83.30;;;;;;5092061;28;20054;-87
2023/10/16 00:11:01;;;;;;;6.27;1.77;;;6.70;83.40;;;;;;5092341;28;20194;-88
2023/10/16 00:13:27;;;;;;;9.47;1.63;;;6.70;83.50;;;;;;5092637;28;20047;-87
2023/10/16 00:15:58;;;;;;;4.40;1.40;;;6.70;83.70;;;;;;5092322;28;20047;-86
2023/10/16 00:18:26;;;;;;;8.30;1.70;;;6.70;83.80;;;;;;5091970;28;20384;-88
2023/10/16 00:20:55;;;;;;;5.63;1.70;;;6.70;83.90;;;;;;5074716;28;20058;-87
2023/10/16 00:23:25;;;;;;;8.33;1.67;;;6.70;84.00;;;;;;5092409;28;20059;-87
2023/10/16 00:25:51;;;;;;;11.73;1.80;;;6.70;84.00;;;;;;5074986;28;20048;-87
2023/10/16 00:28:26;;;;;;;5.47;1.30;;;6.70;84.00;;;;;;5092114;28;20044;-89
2023/10/16 00:30:52;;;;;;;8.27;2.00;;;6.70;83.90;;;;;;5080380;28;20055;-88
2023/10/16 00:33:18;;;;;;;11.87;1.70;;;6.70;83.90;;;;;;5074462;28;20043;-86
2023/10/16 00:35:53;;;;;;;3.97;1.37;;;6.70;83.90;;;;;;5093845;28;20044;-88
2023/10/16 00:38:22;;;;;;;8.20;1.50;;;6.70;84.00;;;;;;5094370;28;20082;-89
2023/10/16 00:40:51;;;;;;;5.40;1.20;;;6.70;84.00;;;;;;5111631;28;20047;-87
2023/10/16 00:43:21;;;;;;;5.80;1.53;;;6.70;84.00;;;;;;5076422;28;20051;-88
2023/10/16 00:45:49;;;;;;;7.40;1.20;;;6.70;84.00;;;;;;5090347;28;20044;-84
2023/10/16 00:48:19;;;;;;;5.57;1.23;;;6.70;84.10;;;;;;5095103;28;20134;-87
2023/10/16 00:50:49;;;;;;;8.23;1.20;;;6.70;84.20;;;;;;5077410;28;20043;-85
2023/10/16 00:53:23;;;;;;;5.50;1.50;;;6.80;84.30;;;;;;5095092;28;20180;-87
2023/10/16 00:55:49;;;;;;;7.33;1.23;;;6.80;84.20;;;;;;5077130;28;20055;-86
2023/10/16 00:58:16;;;;;;;5.83;1.27;;;6.80;84.40;;;;;;5094830;28;20048;-85
2023/10/16 01:00:45;;;;;;;5.40;1.33;;;6.80;84.40;;;;;;5094607;28;20040;-85
2023/10/16 01:03:12;;;;;;;6.43;1.23;;;6.80;84.50;;;;;;5093501;28;20047;-86
2023/10/16 01:05:42;;;;;;;9.13;1.40;;;6.80;84.50;;;;;;5093715;28;20057;-88
2023/10/16 01:08:11;;;;;;;8.77;1.17;;;6.80;84.40;;;;;;5076579;28;20717;-86
2023/10/16 01:10:41;;;;;;;7.97;1.20;;;6.80;84.50;;;;;;5094603;28;20043;-90
2023/10/16 01:13:13;;;;;;;8.40;1.07;;;6.80;84.60;;;;;;5094772;28;20128;-88
2023/10/16 01:15:53;;;;;;;6.80;1.10;;;6.80;84.50;;;;;;5078617;28;20051;-88
2023/10/16 01:18:18;;;;;;;10.10;1.40;;;6.90;84.70;;;;;;5095347;28;20059;-89
2023/10/16 01:20:51;;;;;;;5.47;0.90;;;6.90;84.60;;;;;;5129029;27;20036;-89
2023/10/16 01:23:21;;;;;;;5.37;0.87;;;6.90;84.50;;;;;;5094821;28;20054;-88
2023/10/16 01:25:49;;;;;;;11.90;1.40;;;6.90;84.30;;;;;;5094262;28;20054;-87
2023/10/16 01:28:16;;;;;;;9.93;1.30;;;6.90;84.40;;;;;;5094936;28;20047;-87
2023/10/16 01:30:47;;;;;;;11.97;1.40;;;6.90;84.40;;;;;;5093914;28;20057;-87
2023/10/16 01:33:18;;;;;;;9.88;1.20;;;6.90;84.40;;;;;;5094696;28;20047;-89
2023/10/16 01:35:45;;;;;;;10.43;1.10;;;6.90;84.40;;;;;;5094032;28;20043;-87
2023/10/16 01:38:15;;;;;;;9.50;1.20;;;6.90;84.30;;;;;;5094897;28;20048;-88
2023/10/16 01:41:09;;;;;;;7.13;1.10;;;6.90;84.30;;;;;;5093678;28;20047;-87
2023/10/16 01:43:39;;;;;;;7.63;1.30;;;6.80;84.40;;;;;;5112851;28;20109;-87
2023/10/16 01:46:09;;;;;;;6.67;1.20;;;6.80;84.40;;;;;;5094676;28;20058;-88
2023/10/16 01:48:41;;;;;;;11.90;1.73;;;6.80;84.40;;;;;;5095000;28;20056;-88
2023/10/16 01:51:27;;;;;;;13.20;1.70;;;6.70;84.30;;;;;;5077359;28;20043;-87
2023/10/16 01:53:55;;;;;;;4.53;1.10;;;6.70;84.40;;;;;;5094447;28;20055;-88
2023/10/16 01:56:22;;;;;;;10.90;1.50;;;6.70;84.40;;;;;;5094533;28;20501;-87
2023/10/16 01:58:52;;;;;;;7.97;1.20;;;6.70;84.50;;;;;;5093842;28;20451;-86
2023/10/16 02:01:18;;;;;;;7.70;1.40;;;6.60;84.70;;;;;;5077269;28;20461;-87
2023/10/16 02:03:47;;;;;;;9.30;1.50;;;6.60;84.70;;;;;;5093058;28;20059;-88
2023/10/16 02:06:17;;;;;;;7.83;1.63;;;6.70;84.70;;;;;;5093792;28;20058;-86
2023/10/16 02:08:45;;;;;;;5.60;1.43;;;6.70;84.70;;;;;;5093668;28;20052;-86
2023/10/16 02:11:11;;;;;;;7.20;1.43;;;6.70;84.70;;;;;;5092123;28;20054;-88
2023/10/16 02:13:40;;;;;;;4.77;1.13;;;6.70;84.90;;;;;;5093068;28;20497;-86
2023/10/16 02:16:10;;;;;;;8.87;2.00;;;6.70;85.10;;;;;;5093160;28;20474;-88
2023/10/16 02:18:47;;;;;;;9.13;1.20;;;6.70;85.10;;;;;;5093692;28;20047;-87
2023/10/16 02:21:13;;;;;;;13.50;1.93;;;6.70;85.00;;;;;;5076813;28;20097;-87
2023/10/16 02:23:44;;;;;;;6.47;1.10;;;6.70;85.10;;;;;;5091830;28;20375;-88
2023/10/16 02:26:12;;;;;;;15.73;2.00;;;6.70;85.00;;;;;;5092991;28;20047;-89
2023/10/16 02:28:41;;;;;;;9.30;1.40;;;6.70;85.00;;;;;;5088492;28;20104;-87
2023/10/16 02:31:19;;;;;;;8.87;1.87;;;6.70;85.00;;;;;;5087413;28;20039;-88
2023/10/16 02:34:09;;;;;;;5.87;1.27;;;6.70;85.00;;;;;;5062074;28;20048;-89
2023/10/16 02:36:35;;;;;;;7.05;1.30;;;6.70;85.00;;;;;;5088553;28;20426;-89
2023/10/16 02:39:07;;;;;;;10.53;1.70;;;6.70;85.10;;;;;;5091749;28;20039;-92
2023/10/16 02:41:33;;;;;;;10.57;1.33;;;6.70;85.20;;;;;;5091227;28;20525;-88
2023/10/16 02:43:59;;;;;;;3.30;1.23;;;6.70;85.20;;;;;;5091690;28;20122;-88
2023/10/16 02:46:25;;;;;;;9.37;1.30;;;6.70;85.20;;;;;;5090965;28;20550;-89
2023/10/16 02:48:53;;;;;;;11.00;1.70;;;6.70;85.20;;;;;;5126949;27;20052;-85
2023/10/16 02:51:18;;;;;;;7.53;1.50;;;6.70;85.30;;;;;;5075779;28;20097;-86
2023/10/16 02:53:45;;;;;;;12.33;1.97;;;6.70;85.40;;;;;;5092894;28;20059;-87
2023/10/16 02:56:17;;;;;;;10.10;1.77;;;6.70;85.40;;;;;;5075537;28;20071;-86
2023/10/16 02:58:43;;;;;;;10.97;2.10;;;6.70;85.40;;;;;;5093254;28;20116;-85
2023/10/16 03:01:19;;;;;;;8.37;2.17;;;6.80;85.50;;;;;;5093096;28;20040;-87
2023/10/16 03:03:46;;;;;;;5.40;1.67;;;6.80;85.60;;;;;;5093108;28;20040;-86
2023/10/16 03:06:13;;;;;;;9.50;1.97;;;6.80;85.70;;;;;;5093142;28;20048;-86
2023/10/16 03:08:39;;;;;;;12.43;2.03;;;6.80;85.70;;;;;;5110444;28;20043;-87
2023/10/16 03:11:07;;;;;;;6.93;1.70;;;6.90;85.80;;;;;;5091791;28;20257;-85
2023/10/16 03:13:51;;;;;;;10.10;2.03;;;6.90;86.00;;;;;;5109639;28;20509;-87
2023/10/16 03:16:26;;;;;;;8.10;1.63;;;7.00;86.10;;;;;;5091795;28;20040;-86
2023/10/16 03:19:02;;;;;;;10.00;1.70;;;7.00;86.20;;;;;;5091156;28;20057;-87
2023/10/16 03:21:28;;;;;;;8.27;2.23;;;7.10;86.30;;;;;;5090781;28;20749;-86
2023/10/16 03:23:54;;;;;;;9.57;2.27;;;7.10;86.30;;;;;;5108735;28;20171;-88
2023/10/16 03:26:31;;;;;;;11.93;1.90;;;7.20;86.20;;;;;;5109120;28;20048;-88
2023/10/16 03:28:59;;;;;;;7.97;1.83;;;7.20;86.10;;;;;;5084254;28;20054;-86
2023/10/16 03:31:27;;;;;;;6.77;1.50;;;7.20;86.10;;;;;;5089894;28;20155;-86
2023/10/16 03:33:54;;;;;;;7.10;1.60;;;7.20;86.10;;;;;;5125428;28;20478;-89
2023/10/16 03:36:21;;;;;;;11.20;1.80;;;7.20;86.00;;;;;;5091314;28;20115;-89
2023/10/16 03:38:50;;;;;;;11.53;2.03;;;7.20;86.00;;;;;;5075592;28;20044;-87
2023/10/16 03:44:14;;;;;;;8.43;1.70;;;7.20;85.90;;;;;;5091997;28;20106;-90
2023/10/16 03:46:40;;;;;;;8.10;1.63;;;7.20;85.90;;;;;;5076267;28;20043;-86
2023/10/16 03:49:08;;;;;;;10.03;1.70;;;7.30;85.90;;;;;;5091795;28;20051;-90
2023/10/16 03:51:34;;;;;;;12.47;2.40;;;7.30;85.80;;;;;;5091204;28;20048;-88
2023/10/16 03:54:02;;;;;;;8.13;1.80;;;7.20;85.80;;;;;;5090665;28;20055;-88
2023/10/16 03:56:30;;;;;;;6.97;1.77;;;7.30;85.70;;;;;;5083255;28;20490;-87
2023/10/16 03:58:57;;;;;;;13.13;2.40;;;7.20;85.70;;;;;;5091176;28;20122;-89
2023/10/16 04:01:24;;;;;;;10.63;2.10;;;7.30;85.70;;;;;;5090292;28;20055;-90
2023/10/16 04:03:56;;;;;;;10.30;2.47;;;7.20;85.70;;;;;;5091580;28;20055;-90
2023/10/16 04:06:22;;;;;;;10.00;2.03;;;7.20;85.70;;;;;;5125370;28;20048;-88
2023/10/16 04:08:49;;;;;;;6.10;1.80;;;7.30;85.70;;;;;;5075110;28;20813;-86
2023/10/16 04:11:20;;;;;;;10.00;1.60;;;7.20;85.70;;;;;;5094235;28;20040;-89
2023/10/16 04:13:48;;;;;;;8.20;1.37;;;7.20;85.70;;;;;;5093639;28;20044;-91
2023/10/16 04:16:35;;;;;;;9.43;1.97;;;7.20;85.70;;;;;;5076889;28;20206;-88
2023/10/16 04:19:36;;;;;;;9.30;1.57;;;7.20;85.50;;;;;;5083531;28;20063;-87
2023/10/16 04:22:09;;;;;;;9.47;1.73;;;7.20;85.50;;;;;;5109702;28;20410;-86
2023/10/16 04:24:44;;;;;;;12.35;1.80;;;7.20;85.50;;;;;;5093438;28;20083;-88
2023/10/16 04:29:46;;;;;;;6.37;1.60;;;7.10;85.40;;;;;;5094067;28;20051;-86
2023/10/16 04:34:53;;;;;;;9.85;1.67;;;7.00;85.30;;;;;;5093380;28;20083;-88
2023/10/16 04:53:09;;;;;;;5.63;1.73;;;7.00;85.20;;;;;;5093902;28;20044;-89
2023/10/16 05:20:15;;;;;;;11.27;1.87;;;6.70;84.90;;;;;;5121899;27;20097;-91
2023/10/16 06:15:22;;;;;;;7.73;2.33;;;6.70;85.50;;;;;;5036398;28;20118;-89
2023/10/16 06:17:47;;;;;;;10.63;2.30;;;6.70;85.40;;;;;;5057485;28;20047;-89
2023/10/16 06:20:20;;;;;;;13.47;2.43;;;6.80;85.40;;;;;;5074112;28;20150;-89
2023/10/16 06:22:51;;;;;;;11.63;2.73;;;6.80;85.30;;;;;;5058853;28;20044;-89
2023/10/16 06:25:19;;;;;;;9.20;2.42;;;6.80;85.30;;;;;;5073871;28;20051;-91
2023/10/16 06:27:46;;;;;;;9.13;2.03;;;6.90;85.20;;;;;;5073755;28;20510;-89
2023/10/16 06:30:19;;;;;;;11.53;2.10;;;6.90;85.30;;;;;;5074188;28;20051;-89
2023/10/16 06:32:49;;;;;;;12.77;2.70;;;6.90;85.30;;;;;;5074066;28;20556;-90
2023/10/16 06:35:16;;;;;;;13.47;2.40;;;7.00;85.20;;;;;;5057531;28;20055;-88
2023/10/16 06:37:51;;;;;;;8.47;2.30;;;7.00;85.20;;;;;;5058252;28;20090;-87
2023/10/16 06:40:24;;;;;;;12.37;2.43;;;7.00;85.20;;;;;;5076160;28;20058;-88
2023/10/16 06:42:54;;;;;;;7.57;2.37;;;7.00;85.20;;;;;;5076655;28;20398;-88
2023/10/16 06:45:22;;;;;;;7.43;2.33;;;7.10;85.10;;;;;;5061451;28;20134;-89
2023/10/16 06:47:48;;;;;;;11.20;2.23;;;7.10;85.10;;;;;;5060678;28;20100;-89
2023/10/16 06:53:01;;;;;;;8.93;2.70;;;7.20;85.10;;;;;;5076780;28;20083;-90
2023/10/16 06:55:27;;;;;;;11.47;2.80;;;7.20;85.00;;;;;;5077053;28;20062;-89
2023/10/16 06:57:53;;;;;;;12.37;2.83;;;7.20;85.10;;;;;;5076615;28;20051;-88
2023/10/16 07:00:32;;;;;;;13.30;2.60;;;7.20;85.10;;;;;;5094834;28;20219;-87
2023/10/16 07:03:01;;;;;;;10.23;2.60;;;7.20;85.10;;;;;;5077347;28;20060;-89
2023/10/16 07:05:49;;;;;;;9.67;2.57;;;7.30;85.10;;;;;;5078074;28;20063;-91
2023/10/16 07:08:16;;;;;;;8.77;2.37;;;7.30;85.00;;;;;;5076817;28;20111;-90
2023/10/16 07:10:48;;;;;;;9.80;2.83;;;7.40;85.00;;;;;;5076904;28;20528;-88
2023/10/16 07:13:15;;;;;;;8.00;2.33;;;7.40;85.00;;;;;;5073410;28;20138;-90
2023/10/16 07:15:41;;;;;;;10.80;2.13;;;7.40;84.80;;;;;;5058790;28;20572;-89
2023/10/16 07:18:07;;;;;;;11.13;2.30;;;7.50;84.90;;;;;;5062314;28;20052;-90
2023/10/16 07:20:58;;;;;;;10.67;2.80;;;7.50;84.80;;;;;;5056882;28;20104;-90
2023/10/16 07:23:24;;;;;;;8.83;2.90;;;7.50;84.90;;;;;;5067687;28;20127;-90
2023/10/16 07:25:57;;;;;;;10.83;3.20;;;7.50;84.90;;;;;;5071469;28;20912;-90
2023/10/16 07:28:26;;;;;;;11.97;3.03;;;7.50;84.90;;;;;;5072876;28;20108;-89
2023/10/16 07:30:51;;;;;;;14.77;3.03;;;7.50;85.00;;;;;;5070453;28;20063;-90
2023/10/16 07:33:23;;;;;;;11.77;3.13;;;7.50;85.00;;;;;;5053345;28;20086;-89
2023/10/16 07:35:51;;;;;;;7.63;2.43;;;7.60;85.00;;;;;;5069998;28;20495;-86
2023/10/16 07:38:27;;;;;;;10.70;2.37;;;7.60;85.10;;;;;;5051680;28;20048;-92
2023/10/16 07:41:00;;;;;;;9.80;2.07;;;7.60;84.90;;;;;;5059820;28;20089;-90
2023/10/16 07:43:27;;;;;;;8.93;2.27;;;7.70;84.80;;;;;;5073354;28;20084;-89
2023/10/16 07:46:20;;;;;;;7.60;2.00;;;7.80;84.80;;;;;;5070651;28;20048;-90
2023/10/16 07:48:52;;;;;;;14.27;2.60;;;7.80;84.80;;;;;;5074121;28;20162;-89
2023/10/16 07:51:20;;;;;;;6.43;2.30;;;7.90;84.80;;;;;;5058640;28;20498;-88
2023/10/16 07:53:50;;;;;;;10.37;2.23;;;8.00;84.80;;;;;;5076073;28;20085;-89
2023/10/16 07:56:25;;;;;;;22.47;6.27;;;8.00;84.90;;;;;;5075298;28;20055;-89
2023/10/16 07:59:43;;;;;;;18.50;5.97;;;8.00;85.10;;;;;;5059136;28;20059;-90
2023/10/16 08:01:42;;;;;;;20.38;6.55;;;8.10;85.10;;;;;;5070983;28;20048;-91
2023/10/16 08:06:55;;;;;;;25.87;11.43;;;8.20;85.20;;;;;;5075241;28;20108;-89
2023/10/16 08:11:57;;;;;;;16.23;5.47;;;8.30;85.20;;;;;;5108384;27;20074;-90
2023/10/16 08:14:32;;;;;;;15.20;3.17;;;8.40;85.10;;;;;;5076095;28;20400;-89
2023/10/16 08:17:04;;;;;;;11.43;2.27;;;8.40;85.00;;;;;;5075175;28;20462;-91
2023/10/16 08:19:36;;;;;;;11.30;2.70;;;8.50;85.00;;;;;;5058368;28;20290;-90
2023/10/16 08:22:08;;;;;;;17.17;3.30;;;8.50;85.00;;;;;;5073357;28;20063;-91
2023/10/16 08:24:34;;;;;;;;;;;8.60;85.10;;;;;;5074785;28;20056;-88
2023/10/16 08:29:54;;;;;;;9.10;2.70;;;8.60;85.00;;;;;;5074540;28;20059;-91
2023/10/16 08:35:09;;;;;;;13.70;2.73;;;8.80;84.70;;;;;;5073994;28;20047;-88
2023/10/16 08:37:35;;;;;;;11.40;2.57;;;8.80;84.70;;;;;;5074938;28;20059;-90
2023/10/16 08:40:01;;;;;;;10.20;2.73;;;8.80;84.60;;;;;;5075249;28;20052;-89
2023/10/16 08:42:27;;;;;;;8.17;2.67;;;8.80;84.50;;;;;;5109954;27;20510;-91
2023/10/16 08:45:14;;;;;;;8.43;2.40;;;8.80;84.60;;;;;;5059143;28;20120;-90
2023/10/16 08:47:46;;;;;;;10.30;2.37;;;8.90;84.60;;;;;;5076445;28;20818;-90
2023/10/16 08:50:17;;;;;;;12.20;2.70;;;8.90;84.60;;;;;;5076028;28;20060;-90
2023/10/16 08:52:58;;;;;;;16.77;2.35;;;9.00;84.70;;;;;;5076041;28;20130;-91
2023/10/16 08:55:28;;;;;;;10.30;2.22;;;9.10;84.50;;;;;;5076174;28;20801;-91
2023/10/16 08:57:53;;;;;;;13.07;2.03;;;9.20;84.50;;;;;;5057668;28;20087;-90
2023/10/16 09:00:23;;;;;;;5.73;1.67;;;9.30;84.40;;;;;;5078161;28;20138;-94
2023/10/16 09:02:53;;;;;;;11.07;2.13;;;9.40;84.30;;;;;;5080627;28;20453;-92
2023/10/16 09:05:20;;;;;;;7.60;1.58;;;9.40;84.20;;;;;;5081809;28;20105;-93
2023/10/16 09:07:48;;;;;;;8.80;1.80;;;9.40;84.00;;;;;;5084179;28;20131;-92
2023/10/16 09:10:15;;;;;;;9.47;1.53;;;9.50;83.70;;;;;;5084361;28;20051;-89
2023/10/16 09:12:55;;;;;;;6.90;1.70;;;9.50;83.30;;;;;;5081216;28;20391;-93
2023/10/16 09:15:27;;;;;;;7.83;1.40;;;9.50;83.00;;;;;;5082742;28;20056;-89
2023/10/16 09:17:54;;;;;;;;;;;9.60;82.60;;;;;;5085724;28;20050;-89
2023/10/16 09:20:32;;;;;;;2.97;1.00;;;9.60;81.80;;;;;;5066027;28;19923;-85
2023/10/16 09:23:02;;;;;;;3.03;1.00;;;9.60;80.70;;;;;;5081265;28;20088;-87
2023/10/16 09:25:31;;;;;;;3.30;0.97;;;9.60;80.20;;;;;;5080350;28;20060;-89
2023/10/16 09:27:56;;;;;;;4.90;0.80;;;9.60;80.20;;;;;;5064950;28;20134;-93
2023/10/16 09:30:23;;;;;;;5.07;1.00;;;9.60;80.30;;;;;;5069012;28;20402;-87
2023/10/16 09:32:51;;;;;;;5.80;0.83;;;9.60;79.90;;;;;;5078536;28;20559;-89
2023/10/16 09:35:26;;;;;;;5.73;0.70;;;9.60;79.80;;;;;;5111414;27;20102;-92
2023/10/16 09:37:52;;;;;;;1.93;0.70;;;9.70;80.10;;;;;;5079860;28;20056;-89
2023/10/16 09:43:06;;;;;;;4.77;0.93;;;10.00;80.30;;;;;;5087359;28;20059;-91
2023/10/16 09:45:36;;;;;;;4.17;0.77;;;10.00;79.80;;;;;;5107876;28;20505;-89
2023/10/16 09:48:07;;;;;;;5.17;1.10;;;10.10;79.60;;;;;;5073298;28;20136;-89
2023/10/16 09:50:33;;;;;;;;;;;10.10;78.80;;;;;;5122011;27;20052;-92
2023/10/16 09:53:01;;;;;;;4.07;0.80;;;10.10;77.70;;;;;;5083100;28;19920;-88
2023/10/16 09:55:38;;;;;;;4.23;1.37;;;10.10;78.80;;;;;;5069436;28;20040;-92
2023/10/16 09:58:09;;;;;;;4.03;1.13;;;10.10;79.10;;;;;;5070373;28;20469;-92
2023/10/16 10:00:39;;;;;;;10.82;1.50;;;10.10;79.10;;;;;;5088443;28;20052;-88
2023/10/16 10:03:11;;;;;;;5.47;1.23;;;10.00;78.80;;;;;;5071879;28;20048;-93
2023/10/16 10:06:08;;;;;;;4.80;1.47;;;10.10;78.80;;;;;;5085810;28;20123;-88
2023/10/16 10:11:38;;;;;;;5.87;0.90;;;10.30;78.90;;;;;;5072279;28;20060;-90
2023/10/16 10:14:26;;;;;;;11.50;1.40;;;10.40;78.70;;;;;;5094856;28;20488;-95
2023/10/16 10:16:57;;;;;;;8.73;1.17;;;10.40;78.40;;;;;;5093544;28;20521;-89
2023/10/16 10:19:39;;;;;;;5.80;1.03;;;10.40;78.30;;;;;;5094650;28;20048;-88
2023/10/16 10:22:17;;;;;;;4.53;1.03;;;10.50;78.20;;;;;;5111155;28;20115;-88
2023/10/16 10:25:08;;;;;;;5.00;1.43;;;10.60;77.60;;;;;;5104953;28;20051;-88
2023/10/16 10:27:43;;;;;;;;;;;10.60;76.70;;;;;;5089013;28;20113;-91
2023/10/16 10:30:17;;;;;;;9.67;1.27;;;10.70;75.80;;;;;;5090905;28;19928;-93
2023/10/16 10:32:58;;;;;;;6.33;1.50;;;10.70;77.30;;;;;;5094586;28;20051;-91
2023/10/16 10:35:28;;;;;;;7.15;1.52;;;10.70;77.00;;;;;;5063774;28;20055;-91
2023/10/16 10:38:20;;;;;;;7.95;1.35;;;10.60;77.10;;;;;;5080417;28;20048;-92
2023/10/16 10:41:12;;;;;;;;;;;10.60;77.20;;;;;;5053803;28;20054;-92
2023/10/16 10:43:58;;;;;;;5.60;1.73;;;10.60;76.80;;;;;;5074893;28;19959;-90
2023/10/16 10:46:25;;;;;;;4.90;1.53;;;10.60;77.80;;;;;;5055700;28;20059;-92
2023/10/16 10:48:54;;;;;;;7.28;1.33;;;10.60;77.90;;;;;;5073641;28;20106;-96
2023/10/16 10:51:21;;;;;;;7.22;1.48;;;10.70;78.10;;;;;;5077254;28;20047;-95
2023/10/16 10:53:58;;;;;;;3.90;1.17;;;10.80;77.20;;;;;;5081678;28;20071;-89
2023/10/16 10:56:39;;;;;;;5.75;1.45;;;10.90;77.20;;;;;;5070529;28;20067;-88
2023/10/16 10:59:08;;;;;;;10.00;2.00;;;10.90;77.30;;;;;;5082658;28;20047;-88
2023/10/16 11:04:33;;;;;;;6.20;1.80;;;11.00;76.70;;;;;;5063545;28;20090;-92
2023/10/16 11:07:11;;;;;;;8.50;1.67;;;11.00;76.50;;;;;;5105841;28;20052;-89
2023/10/16 11:09:42;;;;;;;12.98;1.90;;;11.00;75.90;;;;;;5085818;28;20047;-95
2023/10/16 11:12:08;;;;;;;9.05;1.83;;;11.10;76.00;;;;;;5082670;28;20566;-92
2023/10/16 11:14:38;;;;;;;8.25;1.63;;;11.10;75.60;;;;;;5087090;28;20138;-86
2023/10/16 11:17:07;;;;;;;10.47;1.83;;;11.30;75.50;;;;;;5081470;28;20063;-89
2023/10/16 11:19:49;;;;;;;9.98;1.55;;;11.30;74.60;;;;;;5072620;28;20317;-91
2023/10/16 11:22:26;;;;;;;5.55;1.25;;;11.30;74.20;;;;;;5068863;28;20073;-93
2023/10/16 11:24:53;;;;;;;8.18;1.45;;;11.40;74.30;;;;;;5082704;28;20067;-92
2023/10/16 11:27:19;;;;;;;6.80;1.63;;;11.40;73.80;;;;;;5087766;28;20454;-87
2023/10/16 11:29:52;;;;;;;9.15;1.58;;;11.30;73.80;;;;;;5090967;28;20047;-87
2023/10/16 11:32:25;;;;;;;6.90;1.50;;;11.30;73.70;;;;;;5092101;28;20126;-87
2023/10/16 11:38:28;;;;;;;8.55;1.52;;;11.30;73.90;;;;;;5105507;28;20414;-87
2023/10/16 11:41:04;;;;;;;3.35;1.27;;;11.30;73.90;;;;;;5088499;28;20067;-87
2023/10/16 11:43:39;;;;;;;9.75;2.13;;;11.40;73.90;;;;;;5086741;28;20374;-87
2023/10/16 11:46:45;;;;;;;9.32;1.90;;;11.40;73.70;;;;;;5086944;28;20144;-93
2023/10/16 11:49:21;;;;;;;9.60;1.60;;;11.40;73.70;;;;;;5092657;28;20056;-88
2023/10/16 11:51:52;;;;;;;8.73;1.80;;;11.50;73.20;;;;;;5043731;28;20498;-86
2023/10/16 11:54:20;;;;;;;9.10;1.83;;;11.50;73.70;;;;;;5047163;28;20040;-88
2023/10/16 11:56:47;;;;;;;9.23;1.45;;;11.50;73.10;;;;;;5048492;28;20447;-86
2023/10/16 11:59:15;;;;;;;9.77;1.85;;;11.60;73.00;;;;;;5059006;28;20056;-90
2023/10/16 12:01:44;;;;;;;5.05;1.40;;;11.70;72.70;;;;;;5059518;28;20056;-91
2023/10/16 12:04:10;;;;;;;7.72;1.92;;;11.70;72.60;;;;;;5081946;28;20070;-91
2023/10/16 12:06:38;;;;;;;6.00;1.70;;;11.70;72.10;;;;;;5064518;28;20064;-91
2023/10/16 12:09:05;;;;;;;7.57;1.80;;;11.70;71.90;;;;;;5077305;28;20135;-90
2023/10/16 12:11:31;;;;;;;7.07;1.60;;;11.70;72.10;;;;;;5043839;28;20054;-87
2023/10/16 12:13:56;;;;;;;6.65;1.92;;;11.70;72.00;;;;;;5061646;28;20674;-90
2023/10/16 12:16:24;;;;;;;9.57;1.90;;;11.70;72.00;;;;;;5066293;28;20040;-93
2023/10/16 12:18:51;;;;;;;7.55;1.67;;;11.60;71.90;;;;;;5084002;28;20176;-88
2023/10/16 12:21:17;;;;;;;7.78;2.28;;;11.60;71.80;;;;;;5083348;28;20130;-90
2023/10/16 12:23:43;;;;;;;7.60;1.98;;;11.50;71.50;;;;;;5110173;28;20123;-88
2023/10/16 12:26:09;;;;;;;6.95;1.83;;;11.60;71.50;;;;;;5066650;28;20044;-91
2023/10/16 12:28:35;;;;;;;9.27;2.05;;;11.60;71.70;;;;;;5071773;28;20044;-90
2023/10/16 12:31:02;;;;;;;5.45;1.77;;;11.60;71.50;;;;;;5092044;28;20058;-94
2023/10/16 12:33:30;;;;;;;9.73;2.08;;;11.70;71.60;;;;;;5090561;28;20498;-86
2023/10/16 12:35:57;;;;;;;7.50;2.20;;;11.70;71.20;;;;;;5109540;28;20054;-90
2023/10/16 12:38:26;;;;;;;9.05;1.83;;;11.70;71.30;;;;;;5092227;28;20040;-88
2023/10/16 12:40:59;;;;;;;6.32;1.73;;;11.70;71.20;;;;;;5104567;28;20111;-89
2023/10/16 12:43:27;;;;;;;9.10;1.83;;;11.70;71.00;;;;;;5089327;28;20058;-88
2023/10/16 12:45:57;;;;;;;7.88;2.10;;;11.70;71.00;;;;;;5105329;28;20127;-87
2023/10/16 12:48:28;;;;;;;8.77;2.28;;;11.70;70.80;;;;;;5089538;28;20112;-93
2023/10/16 12:50:59;;;;;;;6.85;2.15;;;11.70;71.00;;;;;;5072745;28;20166;-87
2023/10/16 12:53:28;;;;;;;;;;;11.70;70.80;;;;;;5078985;28;20047;-90
2023/10/16 12:55:55;;;;;;;7.75;1.77;;;11.70;70.10;;;;;;5076067;28;19926;-88
2023/10/16 12:58:22;;;;;;;7.00;1.60;;;11.80;71.20;;;;;;5089080;28;20067;-95
2023/10/16 13:00:50;;;;;;;6.75;1.52;;;11.80;71.30;;;;;;5092230;28;20039;-89
2023/10/16 13:03:22;;;;;;;6.07;1.73;;;11.80;70.90;;;;;;5077712;28;20059;-87
2023/10/16 13:05:52;;;;;;;6.72;1.67;;;11.90;71.10;;;;;;5088401;28;20142;-87
2023/10/16 13:08:21;;;;;;;7.78;1.70;;;11.90;70.70;;;;;;5094454;28;20487;-93
2023/10/16 13:10:50;;;;;;;5.75;1.70;;;11.90;70.70;;;;;;5067119;28;20044;-92
2023/10/16 13:13:21;;;;;;;4.57;1.67;;;11.90;70.50;;;;;;5080255;28;21038;-88
2023/10/16 13:15:51;;;;;;;;;;;11.90;70.40;;;;;;5087900;28;20122;-88
2023/10/16 13:18:27;;;;;;;4.57;1.23;;;11.90;69.10;;;;;;5090811;28;19942;-89
2023/10/16 13:20:57;;;;;;;4.75;1.40;;;11.90;70.20;;;;;;5090548;28;21151;-87
2023/10/16 13:23:25;;;;;;;10.13;1.80;;;11.90;69.60;;;;;;5089553;28;20050;-94
2023/10/16 13:25:56;;;;;;;6.75;1.52;;;11.90;68.90;;;;;;5083806;28;20058;-94
2023/10/16 13:28:22;;;;;;;9.00;2.33;;;11.90;69.20;;;;;;5083405;28;20165;-88
2023/10/16 13:30:48;;;;;;;8.02;1.58;;;11.90;69.20;;;;;;5083534;28;20059;-94
2023/10/16 13:33:14;;;;;;;11.02;1.80;;;11.90;69.00;;;;;;5070969;28;20065;-85
2023/10/16 13:35:40;;;;;;;7.28;1.30;;;11.90;69.00;;;;;;5067660;28;20086;-89
2023/10/16 13:38:07;;;;;;;7.57;1.35;;;11.90;68.30;;;;;;5071349;28;20055;-88
2023/10/16 13:40:33;;;;;;;5.10;1.48;;;11.90;68.20;;;;;;5083750;28;20051;-90
2023/10/16 13:43:02;;;;;;;6.55;1.58;;;11.90;68.10;;;;;;5085632;28;20051;-89
2023/10/16 13:45:28;;;;;;;3.90;1.45;;;11.90;68.40;;;;;;5090988;28;20058;-88
2023/10/16 13:47:55;;;;;;;8.13;1.75;;;11.90;68.50;;;;;;5072407;28;20043;-90
2023/10/16 13:50:25;;;;;;;3.47;1.30;;;11.90;68.70;;;;;;5084874;28;20096;-86
2023/10/16 13:52:52;;;;;;;4.65;1.23;;;11.90;68.70;;;;;;5093460;28;20051;-91
2023/10/16 13:55:21;;;;;;;12.90;1.90;;;11.90;69.00;;;;;;5088025;28;20169;-91
2023/10/16 13:57:48;;;;;;;7.70;1.73;;;11.90;69.00;;;;;;5066369;28;20076;-91
2023/10/16 14:00:35;;;;;;;7.88;1.48;;;11.90;68.50;;;;;;5081255;28;20055;-89
2023/10/16 14:05:51;;;;;;;5.20;1.52;;;11.90;69.00;;;;;;5086059;28;20040;-91
2023/10/16 14:08:42;;;;;;;9.45;1.67;;;11.90;68.60;;;;;;5070594;28;20063;-94
2023/10/16 14:11:11;;;;;;;11.80;1.70;;;11.80;68.50;;;;;;5078164;28;20567;-91
2023/10/16 14:13:40;;;;;;;6.13;1.50;;;11.70;68.70;;;;;;5073399;28;21419;-94
2023/10/16 14:16:17;;;;;;;8.30;1.75;;;11.70;68.30;;;;;;5082666;28;20059;-92
2023/10/16 14:18:44;;;;;;;8.15;1.70;;;11.70;68.60;;;;;;5095517;28;20036;-88
2023/10/16 14:21:11;;;;;;;5.15;1.50;;;11.70;69.00;;;;;;5089546;28;20067;-92
2023/10/16 14:23:40;;;;;;;6.13;1.90;;;11.70;69.10;;;;;;5092849;28;20055;-92
2023/10/16 14:26:22;;;;;;;7.75;1.48;;;11.70;69.40;;;;;;5088483;28;20516;-93
2023/10/16 14:28:52;;;;;;;6.60;1.92;;;11.70;69.50;;;;;;5077448;28;20131;-88
2023/10/16 14:31:21;;;;;;;8.18;2.30;;;11.70;69.50;;;;;;5078043;28;20108;-87
2023/10/16 14:33:49;;;;;;;8.65;2.30;;;11.70;69.80;;;;;;5093562;28;20490;-88
2023/10/16 14:37:05;;;;;;;8.73;1.90;;;11.70;69.80;;;;;;5096063;28;20132;-88
2023/10/16 14:42:55;;;;;;;7.00;1.52;;;11.70;69.60;;;;;;5096212;28;20047;-86
2023/10/16 14:45:23;;;;;;;7.63;2.10;;;11.70;69.90;;;;;;5094812;28;20051;-86
2023/10/16 14:47:50;;;;;;;5.80;1.63;;;11.70;70.00;;;;;;5093745;28;20054;-89
2023/10/16 14:50:16;;;;;;;6.05;1.50;;;11.70;70.10;;;;;;5094717;28;20130;-87
2023/10/16 14:52:41;;;;;;;7.88;1.83;;;11.70;70.10;;;;;;5094970;28;20454;-88
2023/10/16 14:55:08;;;;;;;7.38;1.88;;;11.70;70.30;;;;;;5112734;28;20118;-88
2023/10/16 14:57:34;;;;;;;6.53;1.63;;;11.60;70.40;;;;;;5096262;28;20048;-90
2023/10/16 15:00:00;;;;;;;9.18;1.70;;;11.60;70.50;;;;;;5076581;28;20100;-89
2023/10/16 15:02:28;;;;;;;7.70;1.77;;;11.60;69.90;;;;;;5110648;28;20054;-90
2023/10/16 15:04:54;;;;;;;6.18;1.40;;;11.50;69.90;;;;;;5095200;28;20410;-87
2023/10/16 15:07:21;;;;;;;7.80;1.98;;;11.50;70.00;;;;;;5078644;28;20054;-87
2023/10/16 15:09:48;;;;;;;12.20;2.30;;;11.50;70.20;;;;;;5096056;28;20055;-89
2023/10/16 15:12:17;;;;;;;7.13;1.75;;;11.50;70.30;;;;;;5091778;28;20537;-88
2023/10/16 15:14:44;;;;;;;7.88;1.90;;;11.50;70.40;;;;;;5092394;28;20460;-89
2023/10/16 15:17:10;;;;;;;8.55;1.58;;;11.50;70.50;;;;;;5110856;28;20059;-89
2023/10/16 15:19:38;;;;;;;9.65;1.92;;;11.50;70.50;;;;;;5095919;28;20055;-88
2023/10/16 15:22:05;;;;;;;13.75;2.03;;;11.50;70.40;;;;;;5095053;28;20120;-87
2023/10/16 15:24:31;;;;;;;7.20;2.10;;;11.40;70.50;;;;;;5089994;28;20043;-88